Latest Weather Observations for Sydney Olympic Park

IDN60801

Issued at 7:35 pm EST Friday 1 August 2014 (issued every 30 minutes, with the page automatically refreshed every 10 minutes)

About weather observations | Map of weather stations | Latest weather observations for NSW | Other Formats
Station Details ID: 066212 Name: SYDNEY OLYMPIC PARK AWS (ARCHERY CENTRE) Lat: -33.83 Lon: 151.07 Height: 4.0 m
Data from the previous 72 hours. | See also: Recent months at Sydney Olympic Park
Date/Time
EST
Temp
°C
App
Temp
°C
Dew
Point
Rel
Hum
%
Delta-T
°C
Wind Press
QNH
hPa
Press
MSL
hPa
Rain
since 9 am
mm
Dir
 
Spd
km/h
Gust
km/h
Spd
kts
Gust
kts
01/07:31pm 10.9 4.0 2.7 57 3.5 W 28 46 15 25 - - 0.0
01/07:30pm 11.0 4.4 2.1 54 3.8 W 26 46 14 25 - - 0.0
01/07:00pm 11.6 6.1 0.7 47 4.5 W 19 33 10 18 - - 0.0
01/06:30pm 12.4 6.1 -0.8 40 5.3 W 22 39 12 21 - - 0.0
01/06:00pm 13.2 6.4 -1.9 35 6.0 WNW 24 41 13 22 - - 0.0
01/05:30pm 13.6 7.5 -2.3 33 6.3 WNW 20 35 11 19 - - 0.0
01/05:00pm 14.2 5.8 -2.7 31 6.7 WNW 32 50 17 27 - - 0.0
01/04:30pm 15.1 7.0 -2.8 29 7.1 WNW 30 48 16 26 - - 0.0
01/04:16pm 15.4 7.7 -3.0 28 7.3 WNW 28 50 15 27 - - 0.0
01/04:00pm 16.1 9.3 -1.9 29 7.4 WNW 24 50 13 27 - - 0.0
01/03:30pm 16.0 9.0 -3.5 26 7.7 WNW 24 37 13 20 - - 0.0
01/03:00pm 16.5 8.5 -2.5 27 7.7 WNW 30 48 16 26 - - 0.0
01/02:56pm 16.3 8.6 -3.2 26 7.8 WNW 28 48 15 26 - - 0.0
01/02:30pm 17.1 11.2 -2.0 27 7.9 WNW 19 30 10 16 - - 0.0
01/02:00pm 16.6 9.6 -3.5 25 8.0 W 24 37 13 20 - - 0.0
01/01:30pm 17.5 11.2 -1.2 28 7.9 WNW 22 35 12 19 - - 0.0
01/01:00pm 16.9 10.9 -1.7 28 7.7 W 20 33 11 18 - - 0.0
01/12:39pm 17.5 10.0 -1.7 27 8.0 WNW 28 46 15 25 - - 0.0
01/12:30pm 17.9 11.1 0.6 31 7.6 WNW 26 37 14 20 - - 0.0
01/12:00pm 18.0 11.3 1.5 33 7.4 NW 26 43 14 23 - - 0.0
01/11:30am 17.8 10.4 1.7 34 7.2 WNW 30 48 16 26 - - 0.0
01/11:11am 18.1 11.2 2.4 35 7.2 WNW 28 48 15 26 - - 0.0
01/11:00am 18.0 11.9 2.7 36 7.0 WNW 24 41 13 22 - - 0.0
01/10:30am 18.2 12.8 4.4 40 6.6 WNW 22 43 12 23 - - 0.0
01/10:00am 17.6 12.7 4.9 43 6.1 WNW 20 35 11 19 - - 0.0
01/09:30am 17.4 12.6 4.7 43 6.0 WNW 19 26 10 14 - - 0.0
01/09:00am 17.2 13.0 5.5 46 5.6 NW 17 28 9 15 - - 0.0
01/08:30am 16.6 12.4 5.6 48 5.3 NW 17 26 9 14 - - 0.0
01/08:00am 16.1 11.2 4.2 45 5.5 NW 19 30 10 16 - - 0.0
01/07:30am 15.6 11.5 2.1 40 6.0 WNW 13 20 7 11 - - 0.0
01/07:00am 14.2 9.7 2.1 44 5.3 WNW 15 24 8 13 - - 0.0
01/06:30am 10.7 7.4 2.3 56 3.6 NNW 9 11 5 6 - - 0.0
01/06:00am 11.6 9.7 2.6 54 3.9 NW 2 7 1 4 - - 0.0
01/05:30am 13.5 10.3 -0.2 39 5.7 W 6 9 3 5 - - 0.0
01/05:00am 16.2 12.8 -0.9 31 7.2 NW 7 13 4 7 - - 0.0
01/04:30am 17.2 12.2 -1.0 29 7.7 N 15 28 8 15 - - 0.0
01/04:00am 17.4 12.4 -1.3 28 7.9 N 15 22 8 12 - - 0.0
01/03:30am 17.2 12.2 -1.0 29 7.7 N 15 20 8 11 - - 0.0
01/03:00am 16.8 12.2 -0.9 30 7.5 N 13 22 7 12 - - 0.0
01/02:30am 17.7 12.7 -1.0 28 7.9 N 15 22 8 12 - - 0.0
01/02:00am 18.1 12.8 -0.7 28 8.0 N 17 28 9 15 - - 0.0
01/01:30am 18.6 12.9 -0.7 27 8.3 NNW 19 30 10 16 - - 0.0
01/01:00am 18.5 13.2 -0.8 27 8.3 NNW 17 30 9 16 - - 0.0
01/12:30am 18.7 13.5 -0.2 28 8.2 NNW 17 28 9 15 - - 0.0
01/12:00am 18.5 13.2 -0.3 28 8.1 N 17 26 9 14 - - 0.0
 
Date/Time
EST
Temp
°C
App
Temp
°C
Dew
Point
Rel
Hum
%
Delta-T
°C
Wind Press
QNH
hPa
Press
MSL
hPa
Rain
since 9 am
mm
Dir
 
Spd
km/h
Gust
km/h
Spd
kts
Gust
kts
31/11:30pm 18.3 13.5 0.0 29 8.0 NNW 15 30 8 16 - - 0.0
31/11:00pm 18.7 13.5 0.3 29 8.1 NNW 17 26 9 14 - - 0.0
31/10:30pm 18.9 13.4 0.5 29 8.1 N 19 33 10 18 - - 0.0
31/10:00pm 18.9 13.3 0.0 28 8.3 N 19 33 10 18 - - 0.0
31/09:30pm 18.4 13.8 1.4 32 7.6 NNW 15 20 8 11 - - 0.0
31/09:00pm 18.5 14.3 1.5 32 7.6 NNW 13 20 7 11 - - 0.0
31/08:30pm 19.2 14.2 1.2 30 8.1 NNW 17 24 9 13 - - 0.0
31/08:00pm 19.5 14.7 0.5 28 8.4 N 15 22 8 12 - - 0.0
31/07:30pm 20.2 14.5 0.6 27 8.8 NNW 20 32 11 17 - - 0.0
31/07:00pm 20.3 15.2 0.7 27 8.8 NNW 17 28 9 15 - - 0.0
31/06:30pm 20.6 15.5 1.0 27 8.9 NNW 17 26 9 14 - - 0.0
31/06:00pm 21.1 16.0 0.9 26 9.2 NNW 17 30 9 16 - - 0.0
31/05:30pm 21.9 15.8 0.4 24 9.7 NNW 22 33 12 18 - - 0.0
31/05:00pm 22.4 16.1 1.4 25 9.7 NNW 24 35 13 19 - - 0.0
31/04:30pm 23.2 16.6 2.1 25 10.0 NNW 26 43 14 23 - - 0.0
31/04:00pm 23.8 17.4 3.2 26 10.0 NNW 26 43 14 23 - - 0.0
31/03:30pm 24.3 17.5 3.0 25 10.3 NNW 28 44 15 24 - - 0.0
31/03:00pm 24.5 18.3 4.3 27 10.0 NNW 26 41 14 22 - - 0.0
31/02:30pm 24.8 19.6 5.6 29 9.8 NNW 22 35 12 19 - - 0.0
31/02:00pm 24.5 18.3 4.3 27 10.0 NNW 26 44 14 24 - - 0.0
31/01:40pm 24.4 17.8 4.2 27 10.0 NNW 28 46 15 25 - - 0.0
31/01:30pm 24.7 19.9 5.5 29 9.8 NNW 20 33 11 18 - - 0.0
31/01:00pm 24.3 18.3 3.6 26 10.1 NNW 24 43 13 23 - - 0.0
31/12:30pm 23.9 17.7 4.3 28 9.7 NNW 26 41 14 22 - - 0.0
31/12:00pm 23.6 18.7 5.0 30 9.3 NNW 20 33 11 18 - - 0.0
31/11:30am 22.5 17.7 5.4 33 8.5 NNW 20 32 11 17 - - 0.0
31/11:00am 21.6 16.7 5.1 34 8.1 N 20 32 11 17 - - 0.0
31/10:30am 21.2 16.6 5.5 36 7.8 NNW 19 30 10 16 - - 0.0
31/10:00am 20.3 15.4 5.1 37 7.4 NNW 20 37 11 20 - - 0.0
31/09:30am 19.9 15.7 5.5 39 7.1 NNW 17 22 9 12 - - 0.0
31/09:00am 19.1 15.2 5.2 40 6.8 NNW 15 26 8 14 - - 0.0
31/08:30am 18.0 15.2 6.8 48 5.6 N 11 22 6 12 - - 0.0
31/08:00am 15.9 13.3 7.7 58 4.1 NNW 11 15 6 8 - - 0.0
31/07:30am 11.9 11.4 8.0 77 1.9 CALM 0 6 0 3 - - 0.0
31/07:00am 9.4 8.8 7.3 87 1.0 CALM 0 6 0 3 - - 0.0
31/06:30am 10.6 9.8 6.7 77 1.8 CALM 0 0 0 0 - - 0.0
31/06:00am 12.0 10.2 7.1 72 2.4 W 6 9 3 5 - - 0.0
31/05:30am 12.0 9.9 8.1 77 1.9 W 9 15 5 8 - - 0.0
31/05:00am 11.5 9.6 7.4 76 2.0 WNW 7 9 4 5 - - 0.0
31/04:30am 13.2 11.3 6.8 65 3.1 NW 6 9 3 5 - - 0.0
31/04:00am 15.0 12.4 7.8 62 3.6 NW 11 20 6 11 - - 0.0
31/03:30am 14.7 12.2 8.4 66 3.2 NNW 11 19 6 10 - - 0.0
31/03:00am 13.1 11.5 8.6 74 2.2 NNW 7 15 4 8 - - 0.0
31/02:30am 13.5 11.9 8.6 72 2.5 NNW 7 9 4 5 - - 0.0
31/02:00am 14.2 12.2 8.6 69 2.8 N 9 15 5 8 - - 0.0
31/01:30am 15.3 12.6 8.8 65 3.3 NNW 13 20 7 11 - - 0.0
31/01:00am 15.4 13.1 9.1 66 3.2 N 11 17 6 9 - - 0.0
31/12:30am 15.6 12.9 9.1 65 3.3 NNW 13 19 7 10 - - 0.0
31/12:00am 15.7 13.0 9.1 65 3.4 N 13 20 7 11 - - 0.0
 
Date/Time
EST
Temp
°C
App
Temp
°C
Dew
Point
Rel
Hum
%
Delta-T
°C
Wind Press
QNH
hPa
Press
MSL
hPa
Rain
since 9 am
mm
Dir
 
Spd
km/h
Gust
km/h
Spd
kts
Gust
kts
30/11:30pm 15.7 13.0 9.1 65 3.4 NNW 13 19 7 10 - - 0.0
30/11:00pm 13.7 11.7 10.3 80 1.8 NW 11 15 6 8 - - 0.0
30/10:30pm 11.3 9.9 9.6 89 0.9 WNW 7 11 4 6 - - 0.0
30/10:00pm 12.0 10.7 9.2 83 1.4 NW 6 9 3 5 - - 0.0
30/09:30pm 12.2 10.7 9.2 82 1.5 N 7 9 4 5 - - 0.0
30/09:00pm 11.9 10.5 9.5 85 1.2 N 7 9 4 5 - - 0.0
30/08:30pm 12.6 12.3 8.7 77 1.9 CALM 0 0 0 0 - - 0.0
30/08:00pm 13.6 13.2 8.4 71 2.6 CALM 0 0 0 0 - - 0.0
30/07:30pm 14.8 13.2 8.7 67 3.1 NNW 7 11 4 6 - - 0.0
30/07:00pm 15.5 13.3 8.0 61 3.8 WNW 9 13 5 7 - - 0.0
30/06:30pm 17.5 15.3 7.8 53 4.9 WNW 9 15 5 8 - - 0.0
30/06:00pm 18.3 15.0 8.0 51 5.3 NW 15 24 8 13 - - 0.0
30/05:30pm 19.1 15.0 7.8 48 5.8 WNW 19 30 10 16 - - 0.0
30/05:00pm 19.8 15.7 7.9 46 6.1 NW 19 32 10 17 - - 0.0
30/04:30pm 21.0 16.9 8.0 43 6.8 NW 19 33 10 18 - - 0.0
30/04:00pm 22.1 17.3 7.5 39 7.6 NW 22 33 12 18 - - 0.0
30/03:30pm 22.7 18.5 7.3 37 8.0 NW 19 32 10 17 - - 0.0
30/03:00pm 23.2 18.8 7.3 36 8.3 WNW 20 30 11 16 - - 0.0
30/02:30pm 23.0 18.2 7.5 37 8.1 NW 22 37 12 20 - - 0.0
30/02:00pm 23.0 18.2 7.5 37 8.1 NW 22 39 12 21 - - 0.0
30/01:30pm 23.0 18.5 7.1 36 8.2 NW 20 35 11 19 - - 0.0
30/01:00pm 23.2 17.9 6.9 35 8.4 WNW 24 39 13 21 - - 0.0
30/12:30pm 23.2 19.2 8.1 38 8.0 NW 19 30 10 16 - - 0.0
30/12:00pm 22.6 19.6 7.6 38 7.8 WNW 13 19 7 10 - - 0.0
30/11:30am 22.1 18.5 8.2 41 7.3 NNW 17 22 9 12 - - 0.0
30/11:00am 21.2 17.4 7.4 41 7.1 WNW 17 28 9 15 - - 0.0
30/10:30am 20.5 16.4 7.8 44 6.6 WNW 19 28 10 15 - - 0.0
30/10:00am 20.3 18.1 7.7 44 6.5 NW 9 19 5 10 - - 0.0
30/09:30am 18.8 14.6 7.6 48 5.7 NW 19 28 10 15 - - 0.0
30/09:00am 17.8 13.3 6.3 47 5.7 NW 19 26 10 14 - - 0.0
30/08:30am 16.8 14.2 6.0 49 5.2 NNW 9 15 5 8 - - 0.0
30/08:00am 15.5 11.4 6.2 54 4.5 NW 17 26 9 14 - - 0.0
30/07:30am 13.0 9.6 6.1 63 3.3 NW 13 19 7 10 - - 0.0
30/07:00am 11.2 8.1 5.5 68 2.6 NW 11 15 6 8 - - 0.0
30/06:30am 13.1 9.1 4.8 57 3.8 WNW 15 26 8 14 - - 0.0
30/06:00am 13.1 8.4 5.3 59 3.6 WNW 19 26 10 14 - - 0.0
30/05:30am 12.7 8.5 5.6 62 3.3 WNW 17 22 9 12 - - 0.0
30/05:00am 12.2 8.3 5.4 63 3.2 WNW 15 19 8 10 - - 0.0
30/04:30am 12.8 8.9 5.5 61 3.4 WNW 15 20 8 11 - - 0.0
30/04:00am 10.6 8.1 6.7 77 1.8 WNW 9 13 5 7 - - 0.0
30/03:30am 11.4 9.6 5.5 67 2.7 N 4 9 2 5 - - 0.0
30/03:00am 14.5 12.0 4.5 51 4.6 NNW 7 11 4 6 - - 0.0
30/02:30am 13.8 11.0 5.2 56 4.0 NW 9 13 5 7 - - 0.0
30/02:00am 14.6 12.3 4.6 51 4.6 WNW 6 15 3 8 - - 0.0
30/01:30am 15.2 12.9 4.6 49 4.9 NW 6 11 3 6 - - 0.0
30/01:00am 15.6 12.8 5.2 50 4.9 NW 9 17 5 9 - - 0.0
30/12:30am 15.8 12.5 4.8 48 5.2 NW 11 17 6 9 - - 0.0
30/12:00am 16.0 12.8 5.0 48 5.2 NNW 11 19 6 10 - - 0.0
 
Date/Time
EST
Temp
°C
App
Temp
°C
Dew
Point
Rel
Hum
%
Delta-T
°C
Wind Press
QNH
hPa
Press
MSL
hPa
Rain
since 9 am
mm
Dir
 
Spd
km/h
Gust
km/h
Spd
kts
Gust
kts
29/11:30pm 16.2 12.6 5.2 48 5.2 NNW 13 20 7 11 - - 0.0
29/11:00pm 16.6 12.2 4.9 46 5.6 NNW 17 24 9 13 - - 0.0
29/10:30pm 17.0 12.2 4.7 44 5.8 NNW 19 28 10 15 - - 0.0
29/10:00pm 17.2 12.4 4.9 44 5.9 NNW 19 26 10 14 - - 0.0
29/09:30pm 17.1 12.7 4.8 44 5.8 NNW 17 24 9 13 - - 0.0
29/09:00pm 16.5 12.9 4.9 46 5.5 NNW 13 20 7 11 - - 0.0
29/08:30pm 15.4 12.9 4.5 48 5.1 N 7 9 4 5 - - 0.0
29/08:00pm 15.9 12.9 4.0 45 5.5 NNW 9 19 5 10 - - 0.0

Other Formats:

Comma delimited format used in spreadsheet applications
http://www.bom.gov.au/fwo/IDN60801/IDN60801.95765.axf

JavaScript Object Notation format (JSON) in row-major order
http://www.bom.gov.au/fwo/IDN60801/IDN60801.95765.json